MET'MAP v2.0
soon released !

Expected late october,
this new version will be
more efficient, smarter,
and hosted on a brand new
server x3 powerfull...
...and still free !


Not compatible ?
Try the mobile version !

LOG IN : | Subscribe | Disclaimer | Who is Orbifly ? |
ICAO code :

TAF - LHPA Pápa Airport - 30 Mar 2020 22:42 UTC - Data Source NOAA   


- Airport Elevation : 466 ft
- No reported NOTAMs.


LHPA - Pápa Airport

Latest METAR recorded : 2015/08/11 08:15 LHPA 110815Z 02001MPS CAVOK 31/13 Q1015 NOSIG RMK BLU
TAF TAF LHPA
Valid from the 30 at 18:00 until the 31 at 18:00 UTC


301715Z 3018/3118 36013KT CAVOK
BECMG 3022/3101 02005KT
TEMPO 3101/3106 VRB03KT
BECMG 3107/3110 36008KT

Source NOAA


MET'MAP, your aeronautical weather chart ! - Copyright ORBIFLY December 2007

Programming & Development : Alexandra Zaïnal
Co-Developer : Marc-Olivier Méhu
Technical & hardware support : Manuel Goepfert
Concept & Financing : Baudouin d'Aumeries